Time;durP1;ratioP1;P1;durP2;ratioP2;P2;SDS_P1;SDS_P2;PMS_P1;PMS_P2;Temp;Humidity;BMP_temperature;BMP_pressure;BME280_temperature;BME280_humidity;BME280_pressure;Samples;Min_cycle;Max_cycle;Signal;HPM_P1;HPM_P2
2020/12/16 00:00:08;;;;;;;10.90;6.37;;;;;;;;;;5092128;28;20435;-72
2020/12/16 00:02:34;;;;;;;10.70;6.33;;;;;;;;;;5093016;28;20416;-72
2020/12/16 00:05:00;;;;;;;12.27;7.70;;;;;;;;;;5073291;28;20471;-72
2020/12/16 00:07:27;;;;;;;8.37;6.37;;;;;;;;;;5092856;28;20424;-72
2020/12/16 00:09:53;;;;;;;13.30;7.53;;;;;;;;;;5090970;28;20433;-72
2020/12/16 00:12:19;;;;;;;13.00;7.33;;;;;;;;;;5091919;28;20484;-71
2020/12/16 00:14:45;;;;;;;9.70;7.27;;;;;;;;;;5092181;28;20547;-72
2020/12/16 00:17:12;;;;;;;12.63;6.60;;;;;;;;;;5093810;28;20400;-72
2020/12/16 00:19:38;;;;;;;10.73;5.90;;;;;;;;;;5092422;28;20448;-72
2020/12/16 00:22:04;;;;;;;8.73;6.73;;;;;;;;;;5092769;28;20979;-72
2020/12/16 00:24:30;;;;;;;8.30;5.70;;;;;;;;;;5092499;28;20523;-72
2020/12/16 00:26:56;;;;;;;7.97;5.80;;;;;;;;;;5093173;28;20404;-72
2020/12/16 00:29:22;;;;;;;10.47;6.03;;;;;;;;;;5094946;28;20431;-72
2020/12/16 00:31:48;;;;;;;8.43;6.20;;;;;;;;;;5096354;28;20419;-72
2020/12/16 00:34:14;;;;;;;5.90;4.93;;;;;;;;;;5098592;28;20451;-71
2020/12/16 00:36:41;;;;;;;8.97;6.07;;;;;;;;;;5095257;28;20443;-72
2020/12/16 00:39:08;;;;;;;9.50;5.67;;;;;;;;;;5096049;28;20781;-72
2020/12/16 00:41:34;;;;;;;7.40;5.87;;;;;;;;;;5096159;28;20474;-72
2020/12/16 00:44:00;;;;;;;8.50;5.40;;;;;;;;;;5095271;28;20515;-72
2020/12/16 00:46:26;;;;;;;7.27;5.30;;;;;;;;;;5095678;28;20428;-72
2020/12/16 00:48:52;;;;;;;8.07;5.80;;;;;;;;;;5095080;28;20432;-72
2020/12/16 00:51:18;;;;;;;9.03;5.57;;;;;;;;;;5096207;28;20481;-72
2020/12/16 00:53:44;;;;;;;7.33;5.80;;;;;;;;;;5095847;28;20538;-72
2020/12/16 00:56:10;;;;;;;8.90;5.97;;;;;;;;;;5096173;28;20421;-72
2020/12/16 00:58:36;;;;;;;6.70;5.37;;;;;;;;;;5094864;28;20510;-72
2020/12/16 01:01:03;;;;;;;7.10;4.67;;;;;;;;;;5095813;28;20458;-72
2020/12/16 01:03:29;;;;;;;6.90;5.67;;;;;;;;;;5095681;28;20428;-72
2020/12/16 01:05:55;;;;;;;6.93;5.07;;;;;;;;;;5095705;28;20395;-72
2020/12/16 01:08:22;;;;;;;7.23;5.50;;;;;;;;;;5076539;28;20417;-72
2020/12/16 01:10:48;;;;;;;7.80;5.43;;;;;;;;;;5095720;28;20430;-72
2020/12/16 01:13:14;;;;;;;9.93;6.33;;;;;;;;;;5095197;28;20483;-72
2020/12/16 01:15:40;;;;;;;7.50;5.80;;;;;;;;;;5077579;28;20408;-72
2020/12/16 01:18:06;;;;;;;9.60;5.47;;;;;;;;;;5095548;28;20388;-72
2020/12/16 01:20:32;;;;;;;8.90;5.37;;;;;;;;;;5093092;28;20569;-72
2020/12/16 01:22:58;;;;;;;6.87;5.60;;;;;;;;;;5095991;28;20386;-72
2020/12/16 01:25:24;;;;;;;8.77;5.90;;;;;;;;;;5094359;28;20427;-72
2020/12/16 01:27:54;;;;;;;12.30;6.00;;;;;;;;;;5095194;28;20396;-75
2020/12/16 01:30:20;;;;;;;5.80;4.83;;;;;;;;;;5094712;28;20994;-72
2020/12/16 01:32:46;;;;;;;6.10;4.70;;;;;;;;;;5096113;28;20396;-72
2020/12/16 01:35:12;;;;;;;7.33;4.80;;;;;;;;;;5093468;28;20504;-72
2020/12/16 01:37:38;;;;;;;7.33;4.50;;;;;;;;;;5094935;28;20397;-72
2020/12/16 01:40:08;;;;;;;7.20;5.03;;;;;;;;;;5092751;28;20424;-72
2020/12/16 01:42:35;;;;;;;6.70;4.80;;;;;;;;;;5095022;28;20448;-72
2020/12/16 01:45:07;;;;;;;7.40;4.70;;;;;;;;;;5094026;28;20438;-72
2020/12/16 01:47:33;;;;;;;8.23;5.37;;;;;;;;;;5094951;28;20404;-72
2020/12/16 01:50:00;;;;;;;6.77;5.33;;;;;;;;;;5094567;28;20829;-72
2020/12/16 01:52:27;;;;;;;6.50;4.87;;;;;;;;;;5093224;28;20506;-72
2020/12/16 01:54:54;;;;;;;7.33;5.60;;;;;;;;;;5094138;28;20463;-72
2020/12/16 01:57:22;;;;;;;8.30;5.47;;;;;;;;;;5095080;28;20389;-72
2020/12/16 01:59:50;;;;;;;12.10;5.30;;;;;;;;;;5093926;28;20424;-72
2020/12/16 02:02:16;;;;;;;8.40;5.60;;;;;;;;;;5094927;28;20783;-72
2020/12/16 02:04:44;;;;;;;11.97;6.17;;;;;;;;;;5093948;28;20447;-72
2020/12/16 02:07:11;;;;;;;7.40;5.67;;;;;;;;;;5094897;28;20415;-72
2020/12/16 02:09:38;;;;;;;9.43;5.43;;;;;;;;;;5093207;28;20503;-72
2020/12/16 02:12:14;;;;;;;7.10;5.23;;;;;;;;;;5094459;28;20424;-72
2020/12/16 02:14:41;;;;;;;10.30;6.57;;;;;;;;;;5094023;28;20935;-72
2020/12/16 02:17:08;;;;;;;8.10;5.50;;;;;;;;;;5094550;28;20396;-72
2020/12/16 02:19:38;;;;;;;11.03;6.13;;;;;;;;;;5092883;28;20424;-72
2020/12/16 02:22:04;;;;;;;7.90;6.03;;;;;;;;;;5094120;28;20880;-72
2020/12/16 02:24:31;;;;;;;8.23;5.90;;;;;;;;;;5093711;28;20432;-72
2020/12/16 02:26:57;;;;;;;7.03;5.30;;;;;;;;;;5094259;28;20479;-72
2020/12/16 02:29:24;;;;;;;8.67;6.73;;;;;;;;;;5093053;28;20992;-72
2020/12/16 02:31:52;;;;;;;10.80;7.30;;;;;;;;;;5094645;28;20436;-72
2020/12/16 02:34:18;;;;;;;6.30;5.13;;;;;;;;;;5094268;28;20443;-72
2020/12/16 02:36:44;;;;;;;8.93;6.27;;;;;;;;;;5090801;28;20432;-72
2020/12/16 02:39:10;;;;;;;10.73;6.63;;;;;;;;;;5093183;28;20436;-72
2020/12/16 02:41:36;;;;;;;9.60;6.67;;;;;;;;;;5092953;28;20446;-72
2020/12/16 02:44:02;;;;;;;9.20;6.10;;;;;;;;;;5093867;28;20405;-72
2020/12/16 02:46:28;;;;;;;9.37;6.73;;;;;;;;;;5093261;28;20440;-72
2020/12/16 02:48:54;;;;;;;9.07;6.80;;;;;;;;;;5093867;28;20404;-72
2020/12/16 02:51:20;;;;;;;10.00;6.87;;;;;;;;;;5092419;28;20821;-72
2020/12/16 02:53:46;;;;;;;10.67;6.90;;;;;;;;;;5093771;28;20448;-72
2020/12/16 02:56:12;;;;;;;8.30;6.83;;;;;;;;;;5092864;28;20427;-72
2020/12/16 02:58:47;;;;;;;12.10;7.50;;;;;;;;;;5093731;28;20392;-72
2020/12/16 03:01:13;;;;;;;12.30;7.93;;;;;;;;;;5092839;28;20804;-72
2020/12/16 03:03:39;;;;;;;9.43;7.10;;;;;;;;;;5092561;28;20440;-72
2020/12/16 03:06:05;;;;;;;10.67;7.93;;;;;;;;;;5093165;28;20439;-72
2020/12/16 03:08:31;;;;;;;8.23;7.30;;;;;;;;;;5093810;28;20777;-72
2020/12/16 03:10:57;;;;;;;10.17;6.80;;;;;;;;;;5092366;28;20439;-72
2020/12/16 03:13:23;;;;;;;11.07;7.03;;;;;;;;;;5092437;28;20462;-72
2020/12/16 03:15:49;;;;;;;9.03;6.47;;;;;;;;;;5092441;28;20443;-72
2020/12/16 03:18:15;;;;;;;12.87;7.50;;;;;;;;;;5093459;28;20446;-72
2020/12/16 03:20:41;;;;;;;8.87;6.70;;;;;;;;;;5092820;28;20456;-72
2020/12/16 03:23:07;;;;;;;10.60;8.30;;;;;;;;;;5093351;28;20483;-72
2020/12/16 03:25:33;;;;;;;9.80;7.30;;;;;;;;;;5092462;28;20531;-72
2020/12/16 03:27:59;;;;;;;11.33;7.17;;;;;;;;;;5093604;28;20793;-72
2020/12/16 03:30:25;;;;;;;12.23;6.93;;;;;;;;;;5092842;28;20931;-72
2020/12/16 03:32:51;;;;;;;10.80;7.97;;;;;;;;;;5093552;28;20397;-72
2020/12/16 03:35:17;;;;;;;12.90;8.93;;;;;;;;;;5091688;28;20479;-72
2020/12/16 03:37:43;;;;;;;11.50;7.80;;;;;;;;;;5092204;28;20399;-72
2020/12/16 03:40:09;;;;;;;12.60;8.43;;;;;;;;;;5092437;28;20431;-72
2020/12/16 03:42:35;;;;;;;14.47;8.20;;;;;;;;;;5093199;28;20420;-72
2020/12/16 03:45:01;;;;;;;13.87;8.70;;;;;;;;;;5091123;28;20481;-72
2020/12/16 03:47:27;;;;;;;15.77;8.30;;;;;;;;;;5093163;28;20401;-72
2020/12/16 03:49:53;;;;;;;15.47;10.20;;;;;;;;;;5091991;28;20436;-72
2020/12/16 03:52:19;;;;;;;14.13;9.40;;;;;;;;;;5093264;28;20420;-72
2020/12/16 03:54:45;;;;;;;15.83;9.70;;;;;;;;;;5091944;28;20447;-72
2020/12/16 03:57:13;;;;;;;12.40;8.87;;;;;;;;;;5093083;28;20389;-72
2020/12/16 03:59:39;;;;;;;16.17;9.30;;;;;;;;;;5103968;28;20425;-72
2020/12/16 04:02:05;;;;;;;11.87;8.57;;;;;;;;;;5092780;28;20427;-72
2020/12/16 04:04:31;;;;;;;17.20;9.20;;;;;;;;;;5096821;28;20422;-72
2020/12/16 04:06:57;;;;;;;19.00;11.20;;;;;;;;;;5095936;28;20423;-72
2020/12/16 04:09:27;;;;;;;16.87;9.63;;;;;;;;;;5097049;28;20396;-72
2020/12/16 04:11:54;;;;;;;18.53;10.17;;;;;;;;;;5095759;28;20454;-72
2020/12/16 04:14:20;;;;;;;20.53;10.80;;;;;;;;;;5096974;28;20455;-72
2020/12/16 04:16:46;;;;;;;19.23;11.20;;;;;;;;;;5095837;28;20451;-72
2020/12/16 04:19:12;;;;;;;16.00;10.47;;;;;;;;;;5095822;28;20428;-72
2020/12/16 04:21:38;;;;;;;17.70;11.07;;;;;;;;;;5095360;28;20493;-72
2020/12/16 04:24:04;;;;;;;17.90;9.83;;;;;;;;;;5096887;28;20492;-72
2020/12/16 04:26:30;;;;;;;16.37;10.87;;;;;;;;;;5095724;28;20518;-72
2020/12/16 04:28:56;;;;;;;15.10;10.07;;;;;;;;;;5096425;28;20403;-72
2020/12/16 04:31:22;;;;;;;23.93;11.87;;;;;;;;;;5095651;28;20462;-72
2020/12/16 04:33:48;;;;;;;19.70;10.87;;;;;;;;;;5096824;28;20905;-72
2020/12/16 04:36:14;;;;;;;19.57;12.00;;;;;;;;;;5095390;28;20431;-72
2020/12/16 04:38:40;;;;;;;17.77;12.00;;;;;;;;;;5094875;28;20881;-72
2020/12/16 04:41:07;;;;;;;15.37;10.30;;;;;;;;;;5099586;28;20444;-72
2020/12/16 04:43:39;;;;;;;17.83;10.77;;;;;;;;;;5096534;28;20415;-72
2020/12/16 04:46:06;;;;;;;16.07;9.67;;;;;;;;;;5095291;28;20454;-72
2020/12/16 04:48:32;;;;;;;17.80;10.53;;;;;;;;;;5096429;28;20529;-72
2020/12/16 04:51:01;;;;;;;16.53;9.07;;;;;;;;;;5095065;28;20531;-72
2020/12/16 04:53:28;;;;;;;16.67;10.23;;;;;;;;;;5077875;28;20455;-72
2020/12/16 04:55:54;;;;;;;19.00;11.87;;;;;;;;;;5095249;28;20432;-72
2020/12/16 04:58:20;;;;;;;16.03;10.63;;;;;;;;;;5095976;28;20404;-72
2020/12/16 05:00:46;;;;;;;19.23;11.70;;;;;;;;;;5095158;28;20444;-72
2020/12/16 05:03:12;;;;;;;19.17;11.03;;;;;;;;;;5096028;28;20401;-72
2020/12/16 05:05:38;;;;;;;16.90;10.73;;;;;;;;;;5095227;28;20420;-72
2020/12/16 05:08:14;;;;;;;17.83;11.13;;;;;;;;;;5095918;28;20403;-72
2020/12/16 05:10:41;;;;;;;16.07;9.23;;;;;;;;;;5095084;28;20451;-72
2020/12/16 05:13:11;;;;;;;17.33;9.77;;;;;;;;;;5095898;28;20404;-72
2020/12/16 05:15:38;;;;;;;17.07;10.03;;;;;;;;;;5095059;28;20568;-72
2020/12/16 05:18:10;;;;;;;13.63;8.50;;;;;;;;;;5095898;28;20411;-72
2020/12/16 05:20:37;;;;;;;17.30;9.87;;;;;;;;;;5094533;28;20450;-72
2020/12/16 05:23:04;;;;;;;15.57;10.80;;;;;;;;;;5096132;28;20493;-72
2020/12/16 05:25:31;;;;;;;18.43;9.50;;;;;;;;;;5093504;28;20424;-72
2020/12/16 05:27:57;;;;;;;16.00;9.40;;;;;;;;;;5095414;28;20408;-72
2020/12/16 05:30:23;;;;;;;13.33;8.30;;;;;;;;;;5094374;28;20514;-72
2020/12/16 05:32:49;;;;;;;16.43;9.63;;;;;;;;;;5095225;28;20428;-72
2020/12/16 05:35:26;;;;;;;18.03;8.60;;;;;;;;;;5094249;28;20948;-72
2020/12/16 05:37:52;;;;;;;17.77;9.20;;;;;;;;;;5095253;28;20426;-72
2020/12/16 05:40:22;;;;;;;18.17;9.07;;;;;;;;;;5094195;28;20909;-72
2020/12/16 05:42:49;;;;;;;17.40;8.77;;;;;;;;;;5094238;28;20481;-72
2020/12/16 05:45:17;;;;;;;12.50;8.37;;;;;;;;;;5094772;28;20427;-72
2020/12/16 05:48:16;;;;;;;14.30;8.77;;;;;;;;;;5095357;28;20436;-72
2020/12/16 05:50:45;;;;;;;14.00;8.43;;;;;;;;;;5049953;28;20537;-72
2020/12/16 05:53:12;;;;;;;14.57;8.20;;;;;;;;;;5094867;28;20408;-72
2020/12/16 05:55:38;;;;;;;15.87;9.07;;;;;;;;;;5094631;28;20515;-72
2020/12/16 05:58:07;;;;;;;10.37;7.80;;;;;;;;;;5092594;28;20452;-72
2020/12/16 06:00:43;;;;;;;12.60;8.90;;;;;;;;;;5095098;28;20398;-72
2020/12/16 06:03:15;;;;;;;11.37;8.30;;;;;;;;;;5093905;28;20932;-72
2020/12/16 06:05:41;;;;;;;14.53;9.13;;;;;;;;;;5094769;28;20384;-72
2020/12/16 06:08:07;;;;;;;12.57;7.60;;;;;;;;;;5093928;28;20432;-72
2020/12/16 06:10:35;;;;;;;11.20;7.60;;;;;;;;;;5094847;28;20431;-72
2020/12/16 06:13:05;;;;;;;16.03;9.40;;;;;;;;;;5093528;28;20925;-72
2020/12/16 06:15:45;;;;;;;12.40;8.10;;;;;;;;;;5094463;28;20461;-72
2020/12/16 06:18:14;;;;;;;12.83;9.10;;;;;;;;;;5094321;28;20415;-72
2020/12/16 06:20:41;;;;;;;12.40;9.50;;;;;;;;;;5094407;28;20440;-72
2020/12/16 06:23:08;;;;;;;13.93;8.73;;;;;;;;;;5093571;28;20510;-72
2020/12/16 06:25:37;;;;;;;15.40;10.17;;;;;;;;;;5093705;28;20400;-72
2020/12/16 06:28:03;;;;;;;15.47;10.20;;;;;;;;;;5094078;28;20435;-72
2020/12/16 06:30:33;;;;;;;12.67;8.07;;;;;;;;;;5093200;28;20428;-72
2020/12/16 06:33:15;;;;;;;16.90;8.70;;;;;;;;;;5093796;28;20787;-72
2020/12/16 06:35:41;;;;;;;19.20;10.87;;;;;;;;;;5094370;28;20453;-72
2020/12/16 06:38:20;;;;;;;16.17;10.00;;;;;;;;;;5092944;28;20420;-72
2020/12/16 06:40:51;;;;;;;12.83;8.90;;;;;;;;;;5093913;28;20919;-72
2020/12/16 06:43:32;;;;;;;11.13;7.20;;;;;;;;;;5091049;28;20511;-72
2020/12/16 06:46:05;;;;;;;14.53;8.13;;;;;;;;;;5093869;28;20400;-72
2020/12/16 06:48:36;;;;;;;12.50;7.83;;;;;;;;;;5093116;28;20416;-72
2020/12/16 06:51:15;;;;;;;12.60;7.70;;;;;;;;;;5093978;28;20485;-72
2020/12/16 06:53:41;;;;;;;15.23;8.77;;;;;;;;;;5075310;28;20527;-72
2020/12/16 06:56:08;;;;;;;12.27;8.43;;;;;;;;;;5093948;28;20893;-72
2020/12/16 06:58:37;;;;;;;11.60;7.70;;;;;;;;;;5092741;28;20439;-71
2020/12/16 07:01:22;;;;;;;13.67;7.60;;;;;;;;;;5093805;28;20428;-72
2020/12/16 07:03:48;;;;;;;11.30;7.63;;;;;;;;;;5091920;28;20428;-72
2020/12/16 07:06:29;;;;;;;12.57;8.57;;;;;;;;;;5093595;28;20404;-71
2020/12/16 07:09:13;;;;;;;12.90;8.27;;;;;;;;;;5093463;28;20459;-71
2020/12/16 07:11:40;;;;;;;14.60;9.00;;;;;;;;;;5092525;28;20443;-71
2020/12/16 07:14:10;;;;;;;11.67;7.33;;;;;;;;;;5093214;28;20448;-71
2020/12/16 07:16:36;;;;;;;14.07;8.43;;;;;;;;;;5093650;28;20953;-71
2020/12/16 07:19:03;;;;;;;12.70;8.53;;;;;;;;;;5092814;28;20429;-71
2020/12/16 07:21:31;;;;;;;11.47;8.07;;;;;;;;;;5093525;28;20864;-71
2020/12/16 07:24:11;;;;;;;13.07;8.37;;;;;;;;;;5075037;28;20798;-71
2020/12/16 07:26:50;;;;;;;16.50;9.73;;;;;;;;;;5093252;28;20436;-71
2020/12/16 07:29:19;;;;;;;13.73;10.10;;;;;;;;;;5093008;28;20793;-71
2020/12/16 07:32:07;;;;;;;13.50;8.40;;;;;;;;;;5109272;22;20496;-87
2020/12/16 07:34:44;;;;;;;14.00;7.30;;;;;;;;;;5095626;28;20476;-88
2020/12/16 07:37:14;;;;;;;13.10;7.77;;;;;;;;;;5096360;28;20408;-87
2020/12/16 07:39:53;;;;;;;11.77;8.40;;;;;;;;;;5097466;28;20428;-88
2020/12/16 07:42:23;;;;;;;10.43;7.10;;;;;;;;;;5099288;28;20482;-87
2020/12/16 07:44:49;;;;;;;15.30;9.03;;;;;;;;;;5083790;28;20468;-89
2020/12/16 07:47:18;;;;;;;13.83;8.93;;;;;;;;;;5079159;28;20433;-87
2020/12/16 07:49:45;;;;;;;13.70;8.30;;;;;;;;;;5096400;28;20436;-87
2020/12/16 07:52:14;;;;;;;12.83;8.30;;;;;;;;;;5102050;28;20412;-87
2020/12/16 07:54:43;;;;;;;14.97;8.90;;;;;;;;;;5095935;28;20474;-88
2020/12/16 07:57:09;;;;;;;18.47;9.97;;;;;;;;;;5100023;28;20400;-87
2020/12/16 07:59:36;;;;;;;14.27;8.50;;;;;;;;;;5081357;28;20432;-87
2020/12/16 08:02:09;;;;;;;14.93;8.63;;;;;;;;;;5081046;28;20448;-87
2020/12/16 08:04:37;;;;;;;17.40;7.77;;;;;;;;;;5071298;28;20453;-87
2020/12/16 08:10:15;;;;;;;12.60;9.20;;;;;;;;;;5103948;28;20424;-85
2020/12/16 08:12:53;;;;;;;11.87;7.43;;;;;;;;;;5079833;28;20504;-86
2020/12/16 08:15:19;;;;;;;13.43;9.63;;;;;;;;;;5077681;28;20466;-86
2020/12/16 08:17:46;;;;;;;11.37;8.87;;;;;;;;;;5098937;28;20451;-86
2020/12/16 08:20:40;;;;;;;12.37;8.73;;;;;;;;;;5098933;28;20484;-88
2020/12/16 08:23:09;;;;;;;15.80;9.20;;;;;;;;;;5092722;28;20534;-88
2020/12/16 08:25:38;;;;;;;11.63;8.67;;;;;;;;;;5085213;28;20414;-88
2020/12/16 08:28:07;;;;;;;15.53;9.70;;;;;;;;;;5076671;28;20841;-89
2020/12/16 08:30:46;;;;;;;19.87;11.40;;;;;;;;;;5060042;28;20468;-89
2020/12/16 08:33:18;;;;;;;13.40;8.60;;;;;;;;;;5060772;28;20456;-89
2020/12/16 08:39:09;;;;;;;14.27;9.03;;;;;;;;;;5029988;28;20911;-88
2020/12/16 08:41:44;;;;;;;17.80;10.10;;;;;;;;;;5041812;28;20383;-89
2020/12/16 08:44:28;;;;;;;18.87;10.60;;;;;;;;;;5073340;28;20953;-87
2020/12/16 08:47:02;;;;;;;19.47;9.70;;;;;;;;;;5073951;28;20424;-88
2020/12/16 08:49:31;;;;;;;16.43;10.10;;;;;;;;;;5082194;28;20929;-89
2020/12/16 08:52:06;;;;;;;13.80;9.33;;;;;;;;;;5083146;28;20421;-88
2020/12/16 08:54:37;;;;;;;16.60;9.77;;;;;;;;;;5076448;28;20471;-88
2020/12/16 08:57:09;;;;;;;14.93;10.00;;;;;;;;;;5076407;28;20406;-88
2020/12/16 08:59:37;;;;;;;15.03;10.13;;;;;;;;;;5072391;28;20429;-89
2020/12/16 09:02:12;;;;;;;17.30;10.97;;;;;;;;;;5058466;28;20413;-88
2020/12/16 09:04:39;;;;;;;12.83;8.07;;;;;;;;;;5063168;28;20794;-88
2020/12/16 09:07:35;;;;;;;15.67;9.93;;;;;;;;;;5064743;28;20406;-89
2020/12/16 09:10:10;;;;;;;14.30;9.90;;;;;;;;;;5061674;28;20436;-88
2020/12/16 09:12:45;;;;;;;17.50;10.40;;;;;;;;;;5077055;28;20409;-89
2020/12/16 09:15:15;;;;;;;16.37;11.50;;;;;;;;;;5088633;28;20490;-89
2020/12/16 09:17:45;;;;;;;21.07;10.30;;;;;;;;;;5091094;28;20417;-88
2020/12/16 09:20:19;;;;;;;15.57;10.10;;;;;;;;;;5093690;28;20420;-89
2020/12/16 09:22:47;;;;;;;14.13;9.33;;;;;;;;;;5100532;28;20904;-87
2020/12/16 09:25:22;;;;;;;13.43;9.23;;;;;;;;;;5098911;28;20776;-89
2020/12/16 09:28:12;;;;;;;13.10;8.70;;;;;;;;;;5102579;28;20408;-89
2020/12/16 09:30:40;;;;;;;18.10;10.73;;;;;;;;;;5085206;28;20440;-89
2020/12/16 09:33:25;;;;;;;16.13;9.53;;;;;;;;;;5077891;28;20457;-89
2020/12/16 09:36:02;;;;;;;17.23;11.27;;;;;;;;;;5077376;28;20436;-89
2020/12/16 09:38:30;;;;;;;18.10;10.07;;;;;;;;;;5080169;28;20412;-89
2020/12/16 09:41:05;;;;;;;17.40;10.80;;;;;;;;;;5095023;28;20424;-89
2020/12/16 09:43:43;;;;;;;15.03;9.83;;;;;;;;;;5109485;28;20411;-90
2020/12/16 09:46:17;;;;;;;18.10;11.03;;;;;;;;;;5096115;28;20412;-90
2020/12/16 09:51:45;;;;;;;17.13;10.13;;;;;;;;;;5069027;28;20416;-88
2020/12/16 09:54:33;;;;;;;16.10;10.20;;;;;;;;;;5098446;28;20467;-91
2020/12/16 09:57:26;;;;;;;15.43;9.17;;;;;;;;;;5116287;28;20412;-87
2020/12/16 09:59:58;;;;;;;17.03;9.47;;;;;;;;;;5095873;28;20451;-87
2020/12/16 10:02:47;;;;;;;15.47;9.00;;;;;;;;;;5076843;28;20430;-88
2020/12/16 10:05:16;;;;;;;13.57;9.23;;;;;;;;;;5086039;28;20434;-89
2020/12/16 10:07:42;;;;;;;15.33;9.10;;;;;;;;;;5097058;28;20401;-89
2020/12/16 10:10:09;;;;;;;11.90;8.27;;;;;;;;;;5105615;28;20519;-88
2020/12/16 10:12:55;;;;;;;12.83;7.80;;;;;;;;;;5111294;28;20409;-89
2020/12/16 10:15:24;;;;;;;10.50;7.77;;;;;;;;;;5098361;28;20472;-88
2020/12/16 10:17:53;;;;;;;13.07;8.43;;;;;;;;;;5096394;28;20413;-88
2020/12/16 10:20:19;;;;;;;13.20;7.67;;;;;;;;;;5083439;28;20561;-88
2020/12/16 10:22:45;;;;;;;11.27;7.97;;;;;;;;;;5101505;28;20441;-89
2020/12/16 10:25:17;;;;;;;12.70;7.27;;;;;;;;;;5089465;28;20463;-89
2020/12/16 10:27:45;;;;;;;11.87;7.13;;;;;;;;;;5082846;28;20424;-89
2020/12/16 10:30:12;;;;;;;12.33;7.60;;;;;;;;;;5081713;28;20427;-89
2020/12/16 10:32:39;;;;;;;9.40;6.87;;;;;;;;;;5082234;28;20417;-88
2020/12/16 10:35:05;;;;;;;13.10;8.63;;;;;;;;;;5075140;28;20504;-88
2020/12/16 10:37:33;;;;;;;11.37;7.70;;;;;;;;;;5059549;28;20795;-87
2020/12/16 10:40:09;;;;;;;13.17;9.27;;;;;;;;;;5063771;28;20565;-88
2020/12/16 10:42:35;;;;;;;10.90;7.73;;;;;;;;;;5099777;28;20511;-87
2020/12/16 10:45:03;;;;;;;13.33;8.73;;;;;;;;;;5080028;28;20478;-90
2020/12/16 10:47:32;;;;;;;12.53;9.00;;;;;;;;;;5098856;28;20396;-90
2020/12/16 10:49:58;;;;;;;13.33;9.40;;;;;;;;;;5076557;28;20456;-88
2020/12/16 10:52:24;;;;;;;16.10;9.20;;;;;;;;;;5097654;28;20833;-88
2020/12/16 10:54:52;;;;;;;11.73;8.33;;;;;;;;;;5095918;28;20485;-89
2020/12/16 10:57:21;;;;;;;10.43;8.10;;;;;;;;;;5077598;28;20405;-89
2020/12/16 11:00:06;;;;;;;21.43;9.03;;;;;;;;;;5077102;28;20815;-88
2020/12/16 11:02:34;;;;;;;12.17;7.43;;;;;;;;;;5055930;28;20417;-88
2020/12/16 11:05:06;;;;;;;10.03;8.03;;;;;;;;;;5056661;28;20509;-88
2020/12/16 11:07:37;;;;;;;9.73;8.20;;;;;;;;;;5056812;28;20874;-89
2020/12/16 11:10:08;;;;;;;12.07;8.07;;;;;;;;;;5058056;28;20405;-88
2020/12/16 11:12:34;;;;;;;13.07;8.47;;;;;;;;;;5074776;28;20411;-88
2020/12/16 11:15:03;;;;;;;11.23;7.90;;;;;;;;;;5076142;28;20452;-88
2020/12/16 11:17:29;;;;;;;12.57;8.63;;;;;;;;;;5096502;28;20455;-88
2020/12/16 11:19:55;;;;;;;14.30;8.47;;;;;;;;;;5096331;28;20492;-88
2020/12/16 11:22:21;;;;;;;11.50;8.77;;;;;;;;;;5074289;28;20444;-88
2020/12/16 11:24:52;;;;;;;13.97;8.27;;;;;;;;;;5078583;28;20461;-88
2020/12/16 11:27:18;;;;;;;12.90;8.87;;;;;;;;;;5078475;28;20440;-89
2020/12/16 11:29:49;;;;;;;12.73;8.27;;;;;;;;;;5083722;28;20424;-88
2020/12/16 11:32:15;;;;;;;13.87;9.20;;;;;;;;;;5093864;28;20424;-88
2020/12/16 11:34:41;;;;;;;14.53;9.60;;;;;;;;;;5099127;28;20529;-90
2020/12/16 11:37:07;;;;;;;14.30;8.43;;;;;;;;;;5084416;28;20436;-88
2020/12/16 11:39:33;;;;;;;16.63;8.70;;;;;;;;;;5081488;28;20403;-89
2020/12/16 11:42:00;;;;;;;13.00;8.23;;;;;;;;;;5060046;28;20425;-90
2020/12/16 11:44:26;;;;;;;16.77;9.30;;;;;;;;;;5071488;28;20433;-89
2020/12/16 11:46:53;;;;;;;11.90;7.10;;;;;;;;;;5091453;28;20477;-89
2020/12/16 11:49:20;;;;;;;10.93;7.70;;;;;;;;;;5096330;28;20917;-89
2020/12/16 11:51:46;;;;;;;11.80;7.40;;;;;;;;;;5076783;28;20469;-89
2020/12/16 11:54:12;;;;;;;13.53;8.03;;;;;;;;;;5077058;28;20980;-89
2020/12/16 11:56:38;;;;;;;12.60;7.60;;;;;;;;;;5090035;28;20483;-89
2020/12/16 11:59:04;;;;;;;17.80;8.20;;;;;;;;;;5114402;28;20420;-88
2020/12/16 12:01:31;;;;;;;10.33;8.60;;;;;;;;;;5092280;28;20432;-90
2020/12/16 12:03:57;;;;;;;7.90;6.90;;;;;;;;;;5067871;28;20432;-89
2020/12/16 12:06:23;;;;;;;12.20;7.70;;;;;;;;;;5085866;28;20473;-89
2020/12/16 12:08:52;;;;;;;10.70;7.10;;;;;;;;;;5106327;28;20396;-90
2020/12/16 12:11:22;;;;;;;14.93;8.20;;;;;;;;;;5086448;28;20426;-90
2020/12/16 12:13:51;;;;;;;8.47;7.60;;;;;;;;;;5065884;28;20462;-89
2020/12/16 12:16:28;;;;;;;9.80;7.60;;;;;;;;;;5081125;28;20428;-89
2020/12/16 12:18:54;;;;;;;9.77;7.10;;;;;;;;;;5098719;28;20931;-89
2020/12/16 12:21:22;;;;;;;10.07;7.43;;;;;;;;;;5094067;28;20467;-90
2020/12/16 12:23:51;;;;;;;9.97;7.20;;;;;;;;;;5079967;28;20826;-90
2020/12/16 12:26:17;;;;;;;7.50;6.73;;;;;;;;;;5075231;28;20472;-89
2020/12/16 12:28:46;;;;;;;8.33;6.03;;;;;;;;;;5058065;28;20421;-89
2020/12/16 12:31:18;;;;;;;13.03;8.37;;;;;;;;;;5061534;28;20992;-89
2020/12/16 12:33:47;;;;;;;9.60;7.40;;;;;;;;;;5103355;28;20471;-90
2020/12/16 12:36:19;;;;;;;13.00;8.80;;;;;;;;;;5097612;28;20512;-90
2020/12/16 12:38:51;;;;;;;12.50;7.60;;;;;;;;;;5079761;28;20406;-89
2020/12/16 12:41:20;;;;;;;11.17;7.03;;;;;;;;;;5080563;28;20523;-89
2020/12/16 12:44:17;;;;;;;;;;;;;;;;;;;;;
2020/12/16 12:46:40;;;;;;;12.77;9.00;;;;;;;;;;5080881;28;20927;-90
2020/12/16 12:49:19;;;;;;;;;;;;;;;;;;;;;
2020/12/16 12:51:55;;;;;;;16.50;9.37;;;;;;;;;;5087423;28;20445;-90
2020/12/16 12:54:24;;;;;;;14.70;7.90;;;;;;;;;;5057519;28;20636;-90
2020/12/16 12:57:04;;;;;;;18.70;8.97;;;;;;;;;;5063415;28;20816;-89
2020/12/16 12:59:44;;;;;;;14.50;8.90;;;;;;;;;;5076564;28;20436;-90
2020/12/16 13:02:10;;;;;;;13.90;10.00;;;;;;;;;;5086545;28;20496;-89
2020/12/16 13:04:36;;;;;;;29.33;10.10;;;;;;;;;;5097563;28;20989;-88
2020/12/16 13:07:02;;;;;;;14.03;9.70;;;;;;;;;;5090298;28;20975;-88
2020/12/16 13:09:40;;;;;;;14.73;8.90;;;;;;;;;;5075677;28;20909;-89
2020/12/16 13:12:33;;;;;;;11.90;7.90;;;;;;;;;;5083448;28;20899;-89
2020/12/16 13:15:36;;;;;;;13.00;7.90;;;;;;;;;;5091254;28;20457;-89
2020/12/16 13:18:07;;;;;;;15.70;9.63;;;;;;;;;;5076621;28;20448;-88
2020/12/16 13:20:36;;;;;;;10.20;8.37;;;;;;;;;;5070284;28;20448;-88
2020/12/16 13:23:06;;;;;;;16.80;9.17;;;;;;;;;;5076878;28;20467;-89
2020/12/16 13:25:32;;;;;;;13.50;9.20;;;;;;;;;;5073044;28;20455;-88
2020/12/16 13:27:58;;;;;;;15.37;8.60;;;;;;;;;;5075752;28;20522;-89
2020/12/16 13:30:26;;;;;;;16.10;10.73;;;;;;;;;;5076587;28;20414;-88
2020/12/16 13:32:53;;;;;;;11.73;8.80;;;;;;;;;;5075573;28;20795;-90
2020/12/16 13:35:21;;;;;;;12.40;7.10;;;;;;;;;;5075183;28;20490;-89
2020/12/16 13:37:50;;;;;;;13.57;8.00;;;;;;;;;;5076067;28;20429;-89
2020/12/16 13:40:16;;;;;;;8.30;7.03;;;;;;;;;;5076007;28;20409;-88
2020/12/16 13:42:43;;;;;;;12.00;8.10;;;;;;;;;;5076980;28;20417;-89
2020/12/16 13:45:09;;;;;;;11.00;8.00;;;;;;;;;;5077232;28;20425;-88
2020/12/16 13:47:35;;;;;;;12.90;7.43;;;;;;;;;;5099000;23;20853;-73
2020/12/16 13:50:01;;;;;;;14.10;8.47;;;;;;;;;;5135761;27;20379;-72
2020/12/16 13:52:27;;;;;;;9.80;8.60;;;;;;;;;;5133720;27;20483;-73
2020/12/16 13:54:53;;;;;;;9.27;7.30;;;;;;;;;;5132310;27;20481;-71
2020/12/16 13:57:19;;;;;;;10.93;8.00;;;;;;;;;;5134721;27;20441;-71
2020/12/16 13:59:45;;;;;;;13.87;8.43;;;;;;;;;;5135720;27;20902;-71
2020/12/16 14:02:12;;;;;;;11.90;9.33;;;;;;;;;;5134856;27;20441;-72
2020/12/16 14:04:38;;;;;;;10.07;6.97;;;;;;;;;;5134871;27;20398;-72
2020/12/16 14:07:04;;;;;;;7.43;6.60;;;;;;;;;;5133231;27;20777;-72
2020/12/16 14:09:30;;;;;;;11.83;7.50;;;;;;;;;;5134213;27;20937;-70
2020/12/16 14:11:56;;;;;;;9.30;6.90;;;;;;;;;;5133074;27;20434;-72
2020/12/16 14:14:23;;;;;;;25.67;11.07;;;;;;;;;;5132976;27;20438;-72
2020/12/16 14:16:51;;;;;;;13.40;8.53;;;;;;;;;;5133577;27;20417;-71
2020/12/16 14:19:17;;;;;;;10.07;7.83;;;;;;;;;;5134051;27;20878;-72
2020/12/16 14:21:43;;;;;;;12.80;8.30;;;;;;;;;;5133551;27;20444;-71
2020/12/16 14:24:10;;;;;;;11.57;7.70;;;;;;;;;;5135022;27;20407;-71
2020/12/16 14:26:37;;;;;;;13.90;9.50;;;;;;;;;;5133206;27;20498;-71
2020/12/16 14:29:03;;;;;;;13.37;9.50;;;;;;;;;;5133926;27;20785;-71
2020/12/16 14:31:29;;;;;;;13.87;9.77;;;;;;;;;;5132518;27;20475;-72
2020/12/16 14:33:55;;;;;;;13.67;10.20;;;;;;;;;;5133681;27;20541;-71
2020/12/16 14:36:22;;;;;;;12.27;9.07;;;;;;;;;;5133607;27;20423;-71
2020/12/16 14:38:48;;;;;;;19.33;8.57;;;;;;;;;;5132109;27;20435;-71
2020/12/16 14:41:14;;;;;;;16.57;9.90;;;;;;;;;;5133904;27;20422;-71
2020/12/16 14:43:42;;;;;;;13.70;10.00;;;;;;;;;;5134331;27;20422;-71
2020/12/16 14:46:08;;;;;;;15.43;8.47;;;;;;;;;;5134528;27;20399;-71
2020/12/16 14:48:34;;;;;;;13.50;8.83;;;;;;;;;;5133345;27;20528;-71
2020/12/16 14:51:01;;;;;;;18.23;9.67;;;;;;;;;;5134741;27;20419;-71
2020/12/16 14:53:30;;;;;;;11.00;8.80;;;;;;;;;;5133177;27;20458;-71